Terminal Aerodrome Forecast
Issued by NWS Sioux Falls, SD

Home | Current Version | Previous Version | Text Only | Print | Product List | Glossary On
Versions: 1 2 3 4 5 6 7 8 9 10 11 12 13 14 15 16 17 18 19 20 21
117
FTUS43 KFSD 091122
TAFHON
TAF
KHON 091122Z 0912/1012 35008KT P6SM SCT070 BKN150
     FM091400 35010KT P6SM OVC070
     FM100100 VRB04KT P6SM OVC070
     FM101000 13005KT 4SM -SN OVC030=

USA.gov is the U.S. government's official web portal to all federal, state and local government web resources and services.